UMB701 LGHI-LIRZ
Flight info
| Callsign | UMB701 |
|---|---|
| Flight time | N/A |
| Altitude | 38000 |
| Route | MOCNA UG18 GIKAS DCT TALAS DCT PINUK DCT RIVAM DCT KATAR |
| Aircraft | E190/M-SDE3GILORVW/S |
Departure
| Time | 2026-04-30 13:39 |
|---|---|
| Airport | Chios Island National Airport (LGHI) |
Arrival
| Time | N/A |
|---|---|
| Airport | Perugia San Francesco d'Assisi – Umbria International Airport (LIRZ) |
| Time | Latitude | Longitude | Altitude | Speed | Heading |
|---|---|---|---|---|---|
| 2026-04-30 13:17 | 38.34471 | 26.14233 | 28 ft | 0 kts | 101° |
| 2026-04-30 13:19 | 38.34469 | 26.14228 | 28 ft | 0 kts | 9° |
| 2026-04-30 13:33 | 38.34470 | 26.14228 | 28 ft | 0 kts | 0° |
| 2026-04-30 13:34 | 38.34473 | 26.14224 | 28 ft | 1 kts | 336° |
| 2026-04-30 13:34 | 38.34431 | 26.14184 | 28 ft | 8 kts | 198° |
| 2026-04-30 13:35 | 38.34384 | 26.14134 | 28 ft | 9 kts | 233° |
| 2026-04-30 13:35 | 38.34255 | 26.14039 | 28 ft | 16 kts | 189° |
| 2026-04-30 13:36 | 38.33972 | 26.13977 | 28 ft | 22 kts | 189° |
| 2026-04-30 13:36 | 38.33819 | 26.13944 | 28 ft | 22 kts | 190° |
| 2026-04-30 13:36 | 38.33629 | 26.13899 | 28 ft | 3 kts | 92° |
| 2026-04-30 13:37 | 38.33642 | 26.13906 | 28 ft | 2 kts | 8° |
| 2026-04-30 13:37 | 38.33651 | 26.13908 | 28 ft | 0 kts | 9° |
| 2026-04-30 13:38 | 38.33674 | 26.13913 | 28 ft | 11 kts | 9° |
| 2026-04-30 13:38 | 38.33978 | 26.13979 | 28 ft | 77 kts | 9° |
| 2026-04-30 13:38 | 38.35693 | 26.14339 | 473 ft | 145 kts | 10° |
| 2026-04-30 13:39 | 38.37418 | 26.15653 | 1432 ft | 166 kts | 65° |
| 2026-04-30 13:39 | 38.37210 | 26.18571 | 2299 ft | 183 kts | 140° |
| 2026-04-30 13:40 | 38.36070 | 26.19141 | 2834 ft | 182 kts | 183° |
| 2026-04-30 13:40 | 38.34899 | 26.18556 | 3371 ft | 184 kts | 221° |
| 2026-04-30 13:40 | 38.34221 | 26.17168 | 3843 ft | 189 kts | 249° |
| 2026-04-30 13:40 | 38.33771 | 26.15552 | 4330 ft | 196 kts | 251° |
| 2026-04-30 13:41 | 38.33369 | 26.13935 | 5017 ft | 192 kts | 247° |
| 2026-04-30 13:41 | 38.32637 | 26.12534 | 5595 ft | 192 kts | 233° |
| 2026-04-30 13:41 | 38.31969 | 26.11054 | 6113 ft | 194 kts | 246° |
| 2026-04-30 13:41 | 38.31422 | 26.09422 | 6432 ft | 213 kts | 247° |
| 2026-04-30 13:42 | 38.30829 | 26.07621 | 6824 ft | 231 kts | 246° |
| 2026-04-30 13:42 | 38.30148 | 26.05599 | 7061 ft | 259 kts | 248° |
| 2026-04-30 13:42 | 38.28669 | 26.01218 | 8451 ft | 275 kts | 247° |
| 2026-04-30 13:43 | 38.27902 | 25.98952 | 9311 ft | 277 kts | 247° |
| 2026-04-30 13:43 | 38.27157 | 25.96705 | 10149 ft | 279 kts | 248° |
| 2026-04-30 13:43 | 38.26387 | 25.94331 | 10545 ft | 297 kts | 248° |
| 2026-04-30 13:43 | 38.25590 | 25.91847 | 11140 ft | 306 kts | 248° |
| 2026-04-30 13:44 | 38.24909 | 25.89291 | 11848 ft | 311 kts | 260° |
| 2026-04-30 13:44 | 38.24981 | 25.86540 | 12721 ft | 314 kts | 284° |
| 2026-04-30 13:44 | 38.25912 | 25.84029 | 13641 ft | 319 kts | 304° |
| 2026-04-30 13:44 | 38.27520 | 25.82035 | 14421 ft | 327 kts | 324° |
| 2026-04-30 13:45 | 38.31947 | 25.80628 | 16039 ft | 345 kts | 3° |
| 2026-04-30 13:45 | 38.34350 | 25.80711 | 16780 ft | 344 kts | 347° |
| 2026-04-30 13:45 | 38.36528 | 25.79610 | 17498 ft | 340 kts | 324° |
| 2026-04-30 13:46 | 38.38418 | 25.77776 | 18265 ft | 342 kts | 320° |
| 2026-04-30 13:46 | 38.40292 | 25.75926 | 18916 ft | 345 kts | 320° |
| 2026-04-30 13:46 | 38.42215 | 25.74038 | 19592 ft | 349 kts | 320° |
| 2026-04-30 13:46 | 38.44159 | 25.72134 | 20221 ft | 354 kts | 320° |
| 2026-04-30 13:47 | 38.46140 | 25.70194 | 20585 ft | 365 kts | 320° |
| 2026-04-30 13:47 | 38.48148 | 25.68223 | 21132 ft | 370 kts | 320° |
| 2026-04-30 13:47 | 38.50183 | 25.66227 | 21688 ft | 373 kts | 320° |
| 2026-04-30 13:47 | 38.52208 | 25.64242 | 22254 ft | 375 kts | 320° |
| 2026-04-30 13:48 | 38.54270 | 25.62218 | 22793 ft | 377 kts | 320° |
| 2026-04-30 13:48 | 38.56349 | 25.60177 | 23321 ft | 380 kts | 320° |
| 2026-04-30 13:48 | 38.58438 | 25.58125 | 23815 ft | 382 kts | 320° |
| 2026-04-30 13:48 | 38.60560 | 25.56039 | 24115 ft | 389 kts | 320° |
| 2026-04-30 13:49 | 38.62698 | 25.53936 | 24496 ft | 394 kts | 320° |
| 2026-04-30 13:49 | 38.64887 | 25.51783 | 24948 ft | 397 kts | 320° |
| 2026-04-30 13:49 | 38.67088 | 25.49615 | 25401 ft | 400 kts | 320° |
| 2026-04-30 13:49 | 38.69300 | 25.47435 | 25859 ft | 403 kts | 320° |
| 2026-04-30 13:50 | 38.71536 | 25.45230 | 26302 ft | 405 kts | 320° |
| 2026-04-30 13:50 | 38.76013 | 25.40808 | 27149 ft | 409 kts | 320° |
| 2026-04-30 13:50 | 38.78251 | 25.38595 | 27541 ft | 412 kts | 320° |
| 2026-04-30 13:51 | 38.80542 | 25.36328 | 27930 ft | 414 kts | 319° |
| 2026-04-30 13:51 | 38.82831 | 25.34060 | 28297 ft | 416 kts | 319° |
| 2026-04-30 13:51 | 38.85108 | 25.31803 | 28643 ft | 418 kts | 319° |
| 2026-04-30 13:51 | 38.87409 | 25.29520 | 28975 ft | 420 kts | 319° |
| 2026-04-30 13:52 | 38.89739 | 25.27207 | 29380 ft | 421 kts | 319° |
| 2026-04-30 13:52 | 38.92060 | 25.24901 | 29894 ft | 419 kts | 319° |
| 2026-04-30 13:52 | 38.94348 | 25.22625 | 30351 ft | 417 kts | 319° |
| 2026-04-30 13:52 | 38.96640 | 25.20344 | 30774 ft | 415 kts | 319° |
| 2026-04-30 13:53 | 38.98900 | 25.18090 | 31150 ft | 414 kts | 319° |
| 2026-04-30 13:53 | 39.01170 | 25.15826 | 31524 ft | 412 kts | 319° |
| 2026-04-30 13:53 | 39.03447 | 25.13553 | 31893 ft | 411 kts | 318° |
| 2026-04-30 13:53 | 39.05708 | 25.11295 | 32236 ft | 410 kts | 318° |
| 2026-04-30 13:54 | 39.07936 | 25.09067 | 32558 ft | 409 kts | 318° |
| 2026-04-30 13:54 | 39.10196 | 25.06806 | 32869 ft | 408 kts | 318° |
| 2026-04-30 13:54 | 39.12423 | 25.04576 | 33175 ft | 407 kts | 318° |
| 2026-04-30 13:54 | 39.14668 | 25.02325 | 33475 ft | 406 kts | 318° |
| 2026-04-30 13:55 | 39.16878 | 25.00109 | 33761 ft | 406 kts | 317° |
| 2026-04-30 13:55 | 39.19116 | 24.97862 | 34041 ft | 405 kts | 317° |
| 2026-04-30 13:55 | 39.21332 | 24.95636 | 34285 ft | 405 kts | 317° |
| 2026-04-30 13:55 | 39.23564 | 24.93390 | 34521 ft | 404 kts | 317° |
| 2026-04-30 13:56 | 39.25765 | 24.91176 | 34752 ft | 403 kts | 317° |
| 2026-04-30 13:56 | 39.27965 | 24.88961 | 34997 ft | 403 kts | 317° |
| 2026-04-30 13:56 | 39.30194 | 24.86715 | 35238 ft | 402 kts | 317° |
| 2026-04-30 13:56 | 39.32380 | 24.84511 | 35478 ft | 401 kts | 317° |
| 2026-04-30 13:57 | 39.34564 | 24.82306 | 35705 ft | 401 kts | 317° |
| 2026-04-30 13:57 | 39.36769 | 24.80079 | 35941 ft | 400 kts | 317° |
| 2026-04-30 13:57 | 39.38961 | 24.77863 | 36163 ft | 400 kts | 317° |
| 2026-04-30 13:57 | 39.41156 | 24.75643 | 36385 ft | 399 kts | 317° |
| 2026-04-30 13:58 | 39.43323 | 24.73449 | 36612 ft | 398 kts | 317° |
| 2026-04-30 13:58 | 39.47674 | 24.69038 | 37026 ft | 397 kts | 317° |
| 2026-04-30 13:58 | 39.49825 | 24.66764 | 37225 ft | 395 kts | 313° |
| 2026-04-30 13:59 | 39.51654 | 24.64173 | 37407 ft | 390 kts | 304° |
| 2026-04-30 13:59 | 39.53292 | 24.61343 | 37625 ft | 389 kts | 303° |
| 2026-04-30 13:59 | 39.54896 | 24.58571 | 37808 ft | 389 kts | 304° |
| 2026-04-30 13:59 | 39.56535 | 24.55773 | 38097 ft | 384 kts | 304° |
| 2026-04-30 14:00 | 39.58149 | 24.53032 | 38149 ft | 387 kts | 304° |
| 2026-04-30 14:00 | 39.63069 | 24.44717 | 38121 ft | 388 kts | 304° |
| 2026-04-30 14:01 | 39.66365 | 24.39152 | 38009 ft | 387 kts | 304° |
| 2026-04-30 14:01 | 39.69632 | 24.33631 | 38020 ft | 387 kts | 304° |
| 2026-04-30 14:02 | 39.72921 | 24.28065 | 38023 ft | 388 kts | 304° |
| 2026-04-30 14:02 | 39.76223 | 24.22468 | 38030 ft | 395 kts | 304° |
| 2026-04-30 14:03 | 39.79583 | 24.16763 | 38030 ft | 402 kts | 304° |
| 2026-04-30 14:03 | 39.83006 | 24.10941 | 38026 ft | 408 kts | 304° |
| 2026-04-30 14:04 | 39.86483 | 24.05018 | 38015 ft | 412 kts | 304° |
| 2026-04-30 14:04 | 39.89944 | 23.99112 | 38029 ft | 411 kts | 304° |
| 2026-04-30 14:05 | 39.93411 | 23.93184 | 38031 ft | 410 kts | 304° |
| 2026-04-30 14:05 | 39.96850 | 23.87291 | 38015 ft | 408 kts | 304° |
| 2026-04-30 14:06 | 40.01985 | 23.78470 | 38023 ft | 405 kts | 304° |
| 2026-04-30 14:07 | 40.07064 | 23.69720 | 38031 ft | 404 kts | 304° |
| 2026-04-30 14:08 | 40.12178 | 23.60897 | 38025 ft | 409 kts | 304° |
| 2026-04-30 14:08 | 40.17331 | 23.51974 | 38026 ft | 409 kts | 304° |
| 2026-04-30 14:09 | 40.20733 | 23.46070 | 38021 ft | 407 kts | 304° |
| 2026-04-30 14:10 | 40.25804 | 23.37245 | 38019 ft | 403 kts | 304° |
| 2026-04-30 14:10 | 40.29170 | 23.31375 | 38031 ft | 401 kts | 304° |
| 2026-04-30 14:11 | 40.32506 | 23.25542 | 38031 ft | 400 kts | 304° |
| 2026-04-30 14:11 | 40.35869 | 23.19655 | 38042 ft | 405 kts | 304° |
| 2026-04-30 14:12 | 40.39242 | 23.13740 | 38043 ft | 407 kts | 304° |
| 2026-04-30 14:12 | 40.42631 | 23.07788 | 38005 ft | 406 kts | 304° |
| 2026-04-30 14:13 | 40.46001 | 23.01862 | 38012 ft | 404 kts | 303° |
| 2026-04-30 14:13 | 40.49352 | 22.95972 | 38020 ft | 401 kts | 303° |
| 2026-04-30 14:14 | 40.52663 | 22.90115 | 38020 ft | 399 kts | 303° |
| 2026-04-30 14:14 | 40.55987 | 22.84231 | 38028 ft | 400 kts | 303° |
| 2026-04-30 14:15 | 40.59321 | 22.78331 | 38042 ft | 405 kts | 303° |
| 2026-04-30 14:15 | 40.62677 | 22.72375 | 38039 ft | 405 kts | 303° |
| 2026-04-30 14:16 | 40.65461 | 22.67421 | 38042 ft | 405 kts | 303° |
| 2026-04-30 14:16 | 40.69347 | 22.60478 | 38051 ft | 402 kts | 303° |
| 2026-04-30 14:17 | 40.72668 | 22.54552 | 38055 ft | 401 kts | 303° |
| 2026-04-30 14:17 | 40.75418 | 22.49637 | 38070 ft | 400 kts | 303° |
| 2026-04-30 14:18 | 40.78711 | 22.43739 | 38068 ft | 400 kts | 302° |
| 2026-04-30 14:18 | 40.83678 | 22.34830 | 38071 ft | 402 kts | 302° |
| 2026-04-30 14:19 | 40.88644 | 22.25894 | 38107 ft | 402 kts | 302° |
| 2026-04-30 14:20 | 40.91952 | 22.19930 | 38092 ft | 401 kts | 302° |
| 2026-04-30 14:20 | 40.96886 | 22.10999 | 38137 ft | 401 kts | 302° |
| 2026-04-30 14:21 | 41.00162 | 22.05043 | 38125 ft | 401 kts | 302° |
| 2026-04-30 14:22 | 41.05100 | 21.96066 | 38126 ft | 400 kts | 302° |
| 2026-04-30 14:22 | 41.08069 | 21.89911 | 38158 ft | 394 kts | 291° |
| 2026-04-30 14:22 | 41.08977 | 21.86492 | 38195 ft | 391 kts | 285° |
| 2026-04-30 14:23 | 41.12232 | 21.72762 | 38150 ft | 392 kts | 287° |
| 2026-04-30 14:24 | 41.14833 | 21.62367 | 38153 ft | 399 kts | 287° |
| 2026-04-30 14:25 | 41.18350 | 21.48341 | 38155 ft | 399 kts | 287° |
| 2026-04-30 14:26 | 41.20968 | 21.37859 | 38159 ft | 398 kts | 287° |
| 2026-04-30 14:27 | 41.23561 | 21.27434 | 38153 ft | 397 kts | 287° |
| 2026-04-30 14:27 | 41.25290 | 21.20456 | 38136 ft | 398 kts | 287° |
| 2026-04-30 14:28 | 41.27886 | 21.09940 | 38154 ft | 399 kts | 287° |
| 2026-04-30 14:28 | 41.29611 | 21.02933 | 38133 ft | 399 kts | 287° |
| 2026-04-30 14:29 | 41.33046 | 20.88909 | 38147 ft | 399 kts | 287° |
| 2026-04-30 14:31 | 41.37311 | 20.71370 | 38104 ft | 398 kts | 287° |
| 2026-04-30 14:31 | 41.39848 | 20.60879 | 38140 ft | 397 kts | 287° |
| 2026-04-30 14:32 | 41.42377 | 20.50378 | 38129 ft | 397 kts | 287° |
| 2026-04-30 14:33 | 41.44053 | 20.43388 | 38117 ft | 397 kts | 287° |
| 2026-04-30 14:33 | 41.46561 | 20.32886 | 38130 ft | 396 kts | 287° |
| 2026-04-30 14:34 | 41.48228 | 20.25889 | 38124 ft | 396 kts | 287° |
| 2026-04-30 14:34 | 41.49893 | 20.18897 | 38122 ft | 396 kts | 287° |
| 2026-04-30 14:35 | 41.52381 | 20.08405 | 38113 ft | 397 kts | 287° |
| 2026-04-30 14:36 | 41.54040 | 20.01373 | 38098 ft | 397 kts | 287° |
| 2026-04-30 14:36 | 41.55693 | 19.94346 | 38094 ft | 397 kts | 287° |
| 2026-04-30 14:37 | 41.57365 | 19.87289 | 38079 ft | 398 kts | 287° |
| 2026-04-30 14:37 | 41.59028 | 19.80227 | 38078 ft | 399 kts | 287° |
| 2026-04-30 14:38 | 41.60673 | 19.73179 | 38101 ft | 399 kts | 287° |
| 2026-04-30 14:38 | 41.62330 | 19.66100 | 38080 ft | 399 kts | 287° |
| 2026-04-30 14:39 | 41.63981 | 19.59025 | 38089 ft | 399 kts | 287° |
| 2026-04-30 14:39 | 41.65622 | 19.51932 | 38086 ft | 400 kts | 287° |
| 2026-04-30 14:40 | 41.68078 | 19.41268 | 38099 ft | 400 kts | 287° |
| 2026-04-30 14:40 | 41.69697 | 19.34174 | 38095 ft | 400 kts | 287° |
| 2026-04-30 14:41 | 41.71306 | 19.27073 | 38098 ft | 400 kts | 287° |
| 2026-04-30 14:41 | 41.72936 | 19.19952 | 38095 ft | 401 kts | 287° |
| 2026-04-30 14:42 | 41.74548 | 19.12823 | 38100 ft | 401 kts | 287° |
| 2026-04-30 14:42 | 41.76174 | 19.05646 | 38100 ft | 401 kts | 287° |
| 2026-04-30 14:43 | 41.77785 | 18.98517 | 38105 ft | 401 kts | 287° |
| 2026-04-30 14:43 | 41.79397 | 18.91359 | 38101 ft | 402 kts | 287° |
| 2026-04-30 14:44 | 41.81007 | 18.84196 | 38106 ft | 402 kts | 287° |
| 2026-04-30 14:44 | 41.82611 | 18.77035 | 38104 ft | 402 kts | 287° |
| 2026-04-30 14:45 | 41.84223 | 18.69824 | 38102 ft | 402 kts | 287° |
| 2026-04-30 14:45 | 41.85825 | 18.62636 | 38103 ft | 403 kts | 287° |
| 2026-04-30 14:46 | 41.87410 | 18.55478 | 38106 ft | 403 kts | 287° |
| 2026-04-30 14:46 | 41.89058 | 18.48249 | 38109 ft | 403 kts | 287° |
| 2026-04-30 14:47 | 41.90742 | 18.41077 | 38114 ft | 403 kts | 287° |
| 2026-04-30 14:47 | 41.92435 | 18.33918 | 38109 ft | 403 kts | 288° |
| 2026-04-30 14:48 | 41.94135 | 18.26736 | 38115 ft | 404 kts | 288° |
| 2026-04-30 14:48 | 41.95831 | 18.19559 | 38114 ft | 404 kts | 288° |
| 2026-04-30 14:49 | 41.97526 | 18.12367 | 38116 ft | 404 kts | 288° |
| 2026-04-30 14:49 | 41.99215 | 18.05181 | 38114 ft | 404 kts | 288° |
| 2026-04-30 14:50 | 42.01747 | 17.94371 | 38114 ft | 405 kts | 287° |
| 2026-04-30 14:51 | 42.04272 | 17.83533 | 38119 ft | 405 kts | 287° |
| 2026-04-30 14:52 | 42.06793 | 17.72666 | 38125 ft | 406 kts | 287° |
| 2026-04-30 14:52 | 42.09310 | 17.61759 | 38123 ft | 407 kts | 287° |
| 2026-04-30 14:53 | 42.11823 | 17.50818 | 38124 ft | 408 kts | 287° |
| 2026-04-30 14:54 | 42.15158 | 17.36223 | 38126 ft | 408 kts | 287° |
| 2026-04-30 14:55 | 42.17652 | 17.25256 | 38128 ft | 409 kts | 287° |
| 2026-04-30 14:56 | 42.20970 | 17.10576 | 38126 ft | 409 kts | 287° |
| 2026-04-30 14:57 | 42.23451 | 16.99534 | 38133 ft | 410 kts | 287° |
| 2026-04-30 14:58 | 42.26749 | 16.84844 | 38138 ft | 410 kts | 287° |
| 2026-04-30 14:58 | 42.29216 | 16.73764 | 38140 ft | 411 kts | 287° |
| 2026-04-30 15:00 | 42.33306 | 16.55268 | 38140 ft | 412 kts | 287° |
| 2026-04-30 15:01 | 42.36557 | 16.40434 | 38147 ft | 412 kts | 287° |
| 2026-04-30 15:01 | 42.39001 | 16.29256 | 38152 ft | 412 kts | 288° |
| 2026-04-30 15:02 | 42.40620 | 16.21793 | 38151 ft | 413 kts | 287° |
| 2026-04-30 15:03 | 42.44607 | 16.03163 | 38153 ft | 413 kts | 287° |
| 2026-04-30 15:04 | 42.48628 | 15.84502 | 38160 ft | 412 kts | 288° |
| 2026-04-30 15:06 | 42.52271 | 15.65903 | 38158 ft | 406 kts | 286° |
| 2026-04-30 15:07 | 42.55072 | 15.51019 | 38168 ft | 407 kts | 286° |
| 2026-04-30 15:08 | 42.57878 | 15.36181 | 38168 ft | 407 kts | 286° |
| 2026-04-30 15:09 | 42.61376 | 15.17575 | 38177 ft | 407 kts | 286° |
| 2026-04-30 15:10 | 42.64155 | 15.02668 | 38186 ft | 407 kts | 286° |
| 2026-04-30 15:11 | 42.68286 | 14.80289 | 38192 ft | 408 kts | 286° |
| 2026-04-30 15:13 | 42.71477 | 14.62819 | 38206 ft | 408 kts | 286° |
| 2026-04-30 15:14 | 42.76205 | 14.36639 | 38213 ft | 408 kts | 286° |
| 2026-04-30 15:17 | 42.82226 | 14.02826 | 38209 ft | 409 kts | 286° |
| 2026-04-30 15:18 | 42.85392 | 13.84848 | 35997 ft | 375 kts | 285° |
| 2026-04-30 15:19 | 42.87164 | 13.74659 | 34525 ft | 361 kts | 285° |